createdAt,value
2018-02-09T00:01:11.193Z,-4.33
2018-02-09T00:03:39.448Z,-4.34
2018-02-09T00:06:08.479Z,-4.35
2018-02-09T00:08:36.734Z,-4.36
2018-02-09T00:11:04.992Z,-4.45
2018-02-09T00:13:34.017Z,-4.52
2018-02-09T00:16:02.286Z,-4.41
2018-02-09T00:18:30.536Z,-4.37
2018-02-09T00:20:58.800Z,-4.49
2018-02-09T00:23:27.934Z,-4.61
2018-02-09T00:25:56.198Z,-4.68
2018-02-09T00:28:24.450Z,-4.76
2018-02-09T00:30:53.487Z,-4.77
2018-02-09T00:33:21.752Z,-4.79
2018-02-09T00:35:50.017Z,-4.86
2018-02-09T00:38:18.278Z,-4.84
2018-02-09T00:40:47.304Z,-4.79
2018-02-09T00:43:15.553Z,-4.81
2018-02-09T00:45:43.821Z,-4.95
2018-02-09T00:48:12.846Z,-4.97
2018-02-09T00:50:41.110Z,-4.96
2018-02-09T00:53:09.368Z,-4.83
2018-02-09T00:55:38.428Z,-4.90
2018-02-09T00:58:06.655Z,-4.87
2018-02-09T01:00:34.922Z,-4.77
2018-02-09T01:03:03.187Z,-4.88
2018-02-09T01:05:32.208Z,-4.92
2018-02-09T01:08:00.476Z,-4.92
2018-02-09T01:10:28.757Z,-4.88
2018-02-09T01:12:57.010Z,-4.80
2018-02-09T01:15:26.040Z,-4.74
2018-02-09T01:17:54.289Z,-4.83
2018-02-09T01:20:22.545Z,-4.84
2018-02-09T01:22:51.570Z,-4.84
2018-02-09T01:25:19.826Z,-5.05
2018-02-09T01:27:48.085Z,-5.28
2018-02-09T01:30:17.111Z,-5.31
2018-02-09T01:32:45.381Z,-5.48
2018-02-09T01:35:13.632Z,-5.62
2018-02-09T01:37:42.666Z,-5.70
2018-02-09T01:40:10.913Z,-5.65
2018-02-09T01:42:39.186Z,-5.63
2018-02-09T01:45:08.214Z,-5.51
2018-02-09T01:47:36.483Z,-5.38
2018-02-09T01:50:16.758Z,-5.35
2018-02-09T01:52:45.019Z,-5.60
2018-02-09T01:55:13.279Z,-5.57
2018-02-09T01:57:41.532Z,-5.63
2018-02-09T02:00:10.562Z,-5.58
2018-02-09T02:02:38.822Z,-5.58
2018-02-09T02:05:07.078Z,-5.54
2018-02-09T02:07:36.135Z,-5.60
2018-02-09T02:10:04.388Z,-5.63
2018-02-09T02:12:32.667Z,-5.59
2018-02-09T02:15:00.925Z,-5.50
2018-02-09T02:17:29.184Z,-5.47
2018-02-09T02:19:57.438Z,-5.49
2018-02-09T02:22:25.704Z,-5.49
2018-02-09T02:24:53.956Z,-5.45
2018-02-09T02:27:22.230Z,-5.32
2018-02-09T02:29:50.490Z,-5.19
2018-02-09T02:32:18.748Z,-5.12
2018-02-09T02:34:47.010Z,-5.08
2018-02-09T02:37:15.278Z,-4.96
2018-02-09T02:39:44.315Z,-5.01
2018-02-09T02:42:12.682Z,-4.79
2018-02-09T02:44:40.932Z,-4.76
2018-02-09T02:47:09.193Z,-4.88
2018-02-09T02:49:38.209Z,-5.01
2018-02-09T02:52:06.513Z,-4.89
2018-02-09T02:54:34.770Z,-4.83
2018-02-09T02:57:03.018Z,-4.91
2018-02-09T02:59:32.046Z,-4.93
2018-02-09T03:02:00.297Z,-4.82
2018-02-09T03:04:28.560Z,-5.01
2018-02-09T03:06:57.578Z,-5.18
2018-02-09T03:09:25.843Z,-5.29
2018-02-09T03:11:54.862Z,-5.40
2018-02-09T03:14:23.117Z,-5.40
2018-02-09T03:16:51.367Z,-5.41
2018-02-09T03:19:20.397Z,-5.38
2018-02-09T03:21:48.642Z,-5.29
2018-02-09T03:24:17.667Z,-5.33
2018-02-09T03:26:45.916Z,-5.37
2018-02-09T03:29:14.958Z,-5.34
2018-02-09T03:31:43.211Z,-5.19
2018-02-09T03:34:11.480Z,-5.18
2018-02-09T03:36:39.745Z,-5.04
2018-02-09T03:39:08.768Z,-4.97
2018-02-09T03:41:37.026Z,-4.85
2018-02-09T03:44:05.279Z,-4.87
2018-02-09T03:46:34.315Z,-4.76
2018-02-09T03:49:02.566Z,-4.61
2018-02-09T03:51:30.822Z,-4.57
2018-02-09T03:53:59.847Z,-4.53
2018-02-09T03:56:28.116Z,-4.42
2018-02-09T03:58:56.369Z,-4.39
2018-02-09T04:01:25.399Z,-4.31
2018-02-09T04:03:53.656Z,-4.33
2018-02-09T04:06:21.929Z,-4.22
2018-02-09T04:08:50.419Z,-4.32
2018-02-09T04:11:18.700Z,-4.45
2018-02-09T04:13:46.941Z,-4.57
2018-02-09T04:16:15.980Z,-4.63
2018-02-09T04:18:44.243Z,-4.63
2018-02-09T04:21:12.505Z,-4.64
2018-02-09T04:23:40.757Z,-4.58
2018-02-09T04:26:09.793Z,-4.48
2018-02-09T04:28:38.058Z,-4.34
2018-02-09T04:31:06.322Z,-4.29
2018-02-09T04:33:34.580Z,-4.17
2018-02-09T04:36:03.596Z,-4.22
2018-02-09T04:38:31.856Z,-4.33
2018-02-09T04:41:00.883Z,-4.31
2018-02-09T04:43:29.133Z,-4.14
2018-02-09T04:45:57.395Z,-4.00
2018-02-09T04:48:26.426Z,-4.04
2018-02-09T04:50:54.685Z,-4.17
2018-02-09T04:53:22.949Z,-4.29
2018-02-09T04:55:51.980Z,-4.18
2018-02-09T04:58:20.243Z,-4.15
2018-02-09T05:00:48.490Z,-4.01
2018-02-09T05:03:17.525Z,-3.93
2018-02-09T05:05:45.787Z,-3.92
2018-02-09T05:08:14.045Z,-3.90
2018-02-09T05:10:42.297Z,-4.17
2018-02-09T05:13:11.326Z,-4.16
2018-02-09T05:15:39.580Z,-4.17
2018-02-09T05:18:08.610Z,-4.19
2018-02-09T05:20:36.874Z,-4.13
2018-02-09T05:23:05.130Z,-4.09
2018-02-09T05:25:33.470Z,-3.96
2018-02-09T05:28:01.683Z,-4.14
2018-02-09T05:30:29.937Z,-3.95
2018-02-09T05:32:58.958Z,-3.97
2018-02-09T05:35:27.222Z,-3.78
2018-02-09T05:37:56.249Z,-3.68
2018-02-09T05:40:24.509Z,-3.47
2018-02-09T05:42:52.760Z,-3.44
2018-02-09T05:45:21.795Z,-3.61
2018-02-09T05:47:50.045Z,-3.86
2018-02-09T05:50:18.314Z,-3.96
2018-02-09T05:52:46.577Z,-3.94
2018-02-09T05:55:15.602Z,-3.82
2018-02-09T05:57:43.863Z,-4.09
2018-02-09T06:00:12.126Z,-4.19
2018-02-09T06:02:41.151Z,-4.22
2018-02-09T06:05:09.409Z,-4.24
2018-02-09T06:07:37.665Z,-4.18
2018-02-09T06:10:06.681Z,-4.10
2018-02-09T06:12:34.946Z,-4.24
2018-02-09T06:15:03.201Z,-4.25
2018-02-09T06:17:32.230Z,-4.08
2018-02-09T06:20:00.490Z,-4.00
2018-02-09T06:22:28.749Z,-4.11
2018-02-09T06:24:57.771Z,-4.05
2018-02-09T06:27:26.033Z,-3.95
2018-02-09T06:29:54.288Z,-4.18
2018-02-09T06:32:22.562Z,-4.11
2018-02-09T06:34:52.324Z,-4.08
2018-02-09T06:37:20.585Z,-4.10
2018-02-09T06:39:48.846Z,-4.02
2018-02-09T06:42:17.886Z,-4.11
2018-02-09T06:44:46.146Z,-4.11
2018-02-09T06:47:14.415Z,-4.00
2018-02-09T06:49:42.673Z,-4.10
2018-02-09T06:52:10.947Z,-4.07
2018-02-09T06:54:39.203Z,-3.98
2018-02-09T06:57:08.280Z,-4.00
2018-02-09T06:59:36.535Z,-4.01
2018-02-09T07:02:04.792Z,-3.92
2018-02-09T07:04:33.057Z,-3.97
2018-02-09T07:07:01.319Z,-3.94
2018-02-09T07:09:29.586Z,-3.91
2018-02-09T07:11:58.606Z,-3.86
2018-02-09T07:14:26.874Z,-3.74
2018-02-09T07:16:55.127Z,-3.72
2018-02-09T07:19:24.156Z,-3.83
2018-02-09T07:21:52.413Z,-3.75
2018-02-09T07:24:20.685Z,-3.63
2018-02-09T07:26:48.938Z,-3.50
2018-02-09T07:29:17.986Z,-3.49
2018-02-09T07:31:46.249Z,-3.50
2018-02-09T07:34:14.513Z,-3.40
2018-02-09T07:36:42.764Z,-3.23
2018-02-09T07:39:11.811Z,-3.23
2018-02-09T07:41:40.057Z,-3.31
2018-02-09T07:44:08.376Z,-3.14
2018-02-09T07:46:36.627Z,-3.27
2018-02-09T07:49:04.897Z,-3.29
2018-02-09T07:51:33.155Z,-3.55
2018-02-09T07:54:01.423Z,-3.54
2018-02-09T07:56:29.698Z,-3.41
2018-02-09T07:58:57.966Z,-3.51
2018-02-09T08:01:26.998Z,-3.44
2018-02-09T08:03:55.258Z,-3.45
2018-02-09T08:06:23.534Z,-3.42
2018-02-09T08:08:52.493Z,-3.16
2018-02-09T08:11:21.536Z,-3.10
2018-02-09T08:13:49.794Z,-3.11
2018-02-09T08:16:18.059Z,-3.03
2018-02-09T08:18:46.325Z,-2.95
2018-02-09T08:21:15.360Z,-2.84
2018-02-09T08:23:43.603Z,-2.64
2018-02-09T08:26:11.913Z,-2.78
2018-02-09T08:28:40.182Z,-2.70
2018-02-09T08:31:08.441Z,-2.61
2018-02-09T08:33:36.707Z,-2.52
2018-02-09T08:36:04.970Z,-2.46
2018-02-09T08:38:34.106Z,-2.67
2018-02-09T08:41:02.355Z,-2.77
2018-02-09T08:43:30.619Z,-2.69
2018-02-09T08:45:59.637Z,-2.70
2018-02-09T08:48:27.924Z,-2.50
2018-02-09T08:50:56.192Z,-2.68
2018-02-09T08:53:24.509Z,-2.64
2018-02-09T08:55:52.742Z,-2.51
2018-02-09T08:58:21.014Z,-2.43
2018-02-09T09:00:49.274Z,-2.20
2018-02-09T09:03:17.556Z,-2.18
2018-02-09T09:05:45.824Z,-2.21
2018-02-09T09:08:14.862Z,-2.18
2018-02-09T09:10:43.121Z,-1.95
2018-02-09T09:13:11.394Z,-2.14
2018-02-09T09:15:39.671Z,-1.86
2018-02-09T09:18:07.950Z,-1.72
2018-02-09T09:20:36.229Z,-1.63
2018-02-09T09:23:04.484Z,-1.80
2018-02-09T09:25:32.753Z,-2.11
2018-02-09T09:28:01.013Z,-2.22
2018-02-09T09:30:30.050Z,-2.01
2018-02-09T09:32:58.314Z,-1.74
2018-02-09T09:35:26.582Z,-1.69
2018-02-09T09:37:54.847Z,-1.86
2018-02-09T09:40:23.115Z,-1.78
2018-02-09T09:42:52.148Z,-1.92
2018-02-09T09:45:20.465Z,-2.06
2018-02-09T09:47:48.737Z,-1.89
2018-02-09T09:50:17.017Z,-1.87
2018-02-09T09:52:45.282Z,-1.91
2018-02-09T09:55:13.550Z,-1.72
2018-02-09T09:57:41.815Z,-1.48
2018-02-09T10:00:10.090Z,-1.61
2018-02-09T10:02:40.958Z,-1.39
2018-02-09T10:05:09.235Z,-1.37
2018-02-09T10:07:37.497Z,-1.35
2018-02-09T10:10:05.759Z,-1.23
2018-02-09T10:12:34.030Z,-1.13
2018-02-09T10:15:02.289Z,-1.14
2018-02-09T10:17:30.579Z,-1.47
2018-02-09T10:19:58.845Z,-1.30
2018-02-09T10:22:27.122Z,-1.31
2018-02-09T10:24:55.395Z,-1.22
2018-02-09T10:27:23.664Z,-0.97
2018-02-09T10:29:51.924Z,-1.00
2018-02-09T10:32:20.197Z,-0.80
2018-02-09T10:34:48.466Z,-0.84
2018-02-09T10:37:16.738Z,-0.71
2018-02-09T10:39:45.007Z,-0.87
2018-02-09T10:42:14.043Z,-0.77
2018-02-09T10:44:42.339Z,-0.69
2018-02-09T10:47:10.610Z,-0.88
2018-02-09T10:49:38.887Z,-0.77
2018-02-09T10:52:07.163Z,-0.82
2018-02-09T10:54:35.418Z,-0.80
2018-02-09T10:57:03.693Z,-0.62
2018-02-09T10:59:31.974Z,-0.66
2018-02-09T11:02:00.237Z,-0.79
2018-02-09T11:04:28.508Z,-0.78
2018-02-09T11:06:56.774Z,-0.66
2018-02-09T11:09:30.472Z,-0.67
2018-02-09T11:12:01.768Z,-0.59
2018-02-09T11:14:30.041Z,-0.58
2018-02-09T11:16:58.321Z,-0.63
2018-02-09T11:19:26.578Z,-0.74
2018-02-09T11:21:54.897Z,-0.75
2018-02-09T11:24:23.113Z,-0.75
2018-02-09T11:26:51.383Z,-0.81
2018-02-09T11:29:19.661Z,-0.76
2018-02-09T11:31:47.932Z,-0.73
2018-02-09T11:34:16.197Z,-0.69
2018-02-09T11:36:44.471Z,-0.68
2018-02-09T11:39:13.506Z,-0.62
2018-02-09T11:41:41.770Z,-0.61
2018-02-09T11:44:10.034Z,-0.50
2018-02-09T11:46:38.301Z,-0.51
2018-02-09T11:49:06.576Z,-0.54
2018-02-09T11:51:34.848Z,-0.44
2018-02-09T11:54:03.125Z,-0.47
2018-02-09T11:56:32.160Z,-0.51
2018-02-09T11:59:00.425Z,-0.42
2018-02-09T12:01:28.700Z,-0.41
2018-02-09T12:03:56.956Z,-0.40
2018-02-09T12:06:25.233Z,-0.29
2018-02-09T12:08:53.500Z,-0.29
2018-02-09T12:11:21.775Z,-0.20
2018-02-09T12:13:50.049Z,-0.20
2018-02-09T12:16:19.091Z,-0.25
2018-02-09T12:18:47.354Z,-0.12
2018-02-09T12:21:15.629Z,-0.17
2018-02-09T12:23:43.899Z,-0.16
2018-02-09T12:26:12.174Z,-0.14
2018-02-09T12:28:40.450Z,-0.15
2018-02-09T12:31:08.734Z,-0.13
2018-02-09T12:33:36.995Z,-0.17
2018-02-09T12:36:05.278Z,-0.06
2018-02-09T12:38:33.537Z,-0.04
2018-02-09T12:41:01.846Z,-0.04
2018-02-09T12:43:30.123Z,-0.05
2018-02-09T12:45:58.383Z,-0.01
2018-02-09T12:48:26.655Z,-0.03
2018-02-09T12:50:54.921Z,0.05
2018-02-09T12:53:23.202Z,0.05
2018-02-09T12:55:51.462Z,0.05
2018-02-09T12:58:19.730Z,0.06
2018-02-09T13:00:48.042Z,0.07
2018-02-09T13:03:16.311Z,0.19
2018-02-09T13:05:44.567Z,0.08
2018-02-09T13:08:12.823Z,0.08
2018-02-09T13:10:41.874Z,0.17
2018-02-09T13:13:11.840Z,0.13
2018-02-09T13:15:40.861Z,0.08
2018-02-09T13:18:09.133Z,0.03
2018-02-09T13:20:37.391Z,-0.03
2018-02-09T13:23:23.407Z,0.13
2018-02-09T13:25:51.662Z,0.11
2018-02-09T13:31:27.549Z,0.13
2018-02-09T13:33:55.822Z,0.10
2018-02-09T13:36:41.651Z,0.07
2018-02-09T13:39:09.923Z,0.07
2018-02-09T13:41:38.268Z,0.07
2018-02-09T13:44:06.456Z,0.12
2018-02-09T13:46:34.720Z,0.13
2018-02-09T13:49:02.977Z,0.10
2018-02-09T13:51:31.242Z,0.06
2018-02-09T13:54:00.311Z,0.08
2018-02-09T13:56:28.592Z,0.07
2018-02-09T13:58:56.847Z,0.12
2018-02-09T14:01:25.111Z,0.12
2018-02-09T14:03:53.361Z,0.12
2018-02-09T14:06:21.637Z,0.12
2018-02-09T14:08:50.131Z,0.09
2018-02-09T14:11:18.397Z,0.13
2018-02-09T14:13:46.651Z,0.11
2018-02-09T14:16:14.918Z,0.11
2018-02-09T14:18:43.933Z,0.11
2018-02-09T14:21:12.203Z,0.13
2018-02-09T14:23:40.449Z,0.12
2018-02-09T14:26:09.476Z,0.02
2018-02-09T14:28:37.741Z,0.08
2018-02-09T14:31:05.995Z,0.12
2018-02-09T14:33:35.018Z,0.05
2018-02-09T14:36:03.284Z,0.10
2018-02-09T14:38:32.297Z,0.05
2018-02-09T14:41:00.558Z,0.05
2018-02-09T14:43:28.810Z,0.06
2018-02-09T14:45:57.838Z,0.09
2018-02-09T14:48:26.102Z,0.07
2018-02-09T14:50:54.403Z,0.06
2018-02-09T14:53:22.649Z,0.07
2018-02-09T14:55:50.917Z,0.01
2018-02-09T14:58:19.945Z,0.00
2018-02-09T15:00:48.208Z,0.02
2018-02-09T15:03:16.493Z,0.03
2018-02-09T15:05:44.740Z,0.02
2018-02-09T15:08:13.776Z,0.03
2018-02-09T15:10:42.042Z,0.01
2018-02-09T15:13:10.309Z,-0.02
2018-02-09T15:15:38.573Z,0.00
2018-02-09T15:18:07.596Z,0.00
2018-02-09T15:20:35.854Z,0.04
2018-02-09T15:23:04.121Z,0.06
2018-02-09T15:25:32.379Z,0.04
2018-02-09T15:28:01.414Z,0.01
2018-02-09T15:30:29.675Z,-0.01
2018-02-09T15:32:57.965Z,0.02
2018-02-09T15:35:26.237Z,0.06
2018-02-09T15:37:54.493Z,0.02
2018-02-09T15:40:22.767Z,0.03
2018-02-09T15:42:51.017Z,0.01
2018-02-09T15:45:20.043Z,0.00
2018-02-09T15:47:48.306Z,-0.05
2018-02-09T15:50:16.599Z,0.00
2018-02-09T15:52:44.858Z,0.01
2018-02-09T15:55:13.135Z,0.02
2018-02-09T15:57:41.451Z,-0.01
2018-02-09T16:00:09.678Z,-0.04
2018-02-09T16:02:38.699Z,0.02
2018-02-09T16:05:06.974Z,-0.01
2018-02-09T16:07:35.243Z,0.03
2018-02-09T16:10:03.513Z,-0.01
2018-02-09T16:12:31.779Z,0.05
2018-02-09T16:15:00.048Z,0.02
2018-02-09T16:17:29.066Z,0.05
2018-02-09T16:19:57.317Z,0.04
2018-02-09T16:22:26.346Z,0.02
2018-02-09T16:24:54.607Z,0.02
2018-02-09T16:27:22.875Z,0.01
2018-02-09T16:29:51.145Z,0.02
2018-02-09T16:32:19.405Z,0.01
2018-02-09T16:34:48.486Z,-0.02
2018-02-09T16:37:16.740Z,0.04
2018-02-09T16:39:45.008Z,-0.01
2018-02-09T16:42:13.262Z,0.03
2018-02-09T16:44:41.561Z,0.06
2018-02-09T16:47:09.826Z,0.06
2018-02-09T16:49:38.076Z,0.07
2018-02-09T16:52:06.341Z,0.05
2018-02-09T16:54:34.597Z,0.08
2018-02-09T16:57:02.854Z,0.07
2018-02-09T16:59:31.106Z,0.07
2018-02-09T17:01:59.374Z,0.11
2018-02-09T17:04:27.621Z,0.10
2018-02-09T17:06:55.885Z,0.06
2018-02-09T17:09:24.918Z,0.05
2018-02-09T17:11:53.196Z,0.05
2018-02-09T17:14:21.450Z,0.06
2018-02-09T17:16:49.764Z,0.04
2018-02-09T17:19:18.021Z,0.00
2018-02-09T17:21:46.999Z,0.06
2018-02-09T17:24:15.279Z,0.03
2018-02-09T17:26:43.532Z,0.04
2018-02-09T17:29:12.568Z,0.07
2018-02-09T17:31:40.814Z,0.03
2018-02-09T17:34:09.078Z,0.07
2018-02-09T17:36:37.334Z,0.06
2018-02-09T17:39:06.362Z,0.04
2018-02-09T17:41:34.631Z,-0.01
2018-02-09T17:44:02.898Z,0.00
2018-02-09T17:46:31.959Z,0.02
2018-02-09T17:49:00.984Z,0.02
2018-02-09T17:51:30.016Z,-0.01
2018-02-09T17:53:58.289Z,0.00
2018-02-09T17:56:26.550Z,0.02
2018-02-09T17:58:54.804Z,0.03
2018-02-09T18:01:23.840Z,0.06
2018-02-09T18:03:52.099Z,0.07
2018-02-09T18:06:20.357Z,0.08
2018-02-09T18:08:48.620Z,0.07
2018-02-09T18:11:17.661Z,-0.01
2018-02-09T18:13:45.918Z,-0.04
2018-02-09T18:16:14.183Z,-0.04
2018-02-09T18:18:42.462Z,-0.05
2018-02-09T18:21:10.727Z,-0.05
2018-02-09T18:23:39.010Z,-0.05
2018-02-09T18:26:07.271Z,-0.07
2018-02-09T18:28:36.316Z,-0.03
2018-02-09T18:31:04.578Z,-0.06
2018-02-09T18:33:32.847Z,-0.02
2018-02-09T18:36:01.121Z,-0.04
2018-02-09T18:38:29.387Z,-0.07
2018-02-09T18:40:57.652Z,-0.12
2018-02-09T18:43:25.922Z,-0.06
2018-02-09T18:45:54.974Z,-0.12
2018-02-09T18:48:23.247Z,-0.15
2018-02-09T18:50:51.512Z,-0.14
2018-02-09T18:53:19.788Z,-0.11
2018-02-09T18:55:48.071Z,-0.13
2018-02-09T18:58:16.357Z,-0.05
2018-02-09T19:00:44.622Z,-0.04
2018-02-09T19:03:12.893Z,-0.02
2018-02-09T19:05:41.932Z,-0.06
2018-02-09T19:08:10.965Z,-0.12
2018-02-09T19:10:39.225Z,-0.15
2018-02-09T19:13:07.517Z,-0.13
2018-02-09T19:15:35.776Z,-0.14
2018-02-09T19:18:04.041Z,-0.13
2018-02-09T19:20:32.318Z,-0.14
2018-02-09T19:23:00.585Z,-0.16
2018-02-09T19:25:29.632Z,-0.10
2018-02-09T19:27:57.907Z,-0.05
2018-02-09T19:30:26.184Z,-0.06
2018-02-09T19:32:54.442Z,0.00
2018-02-09T19:35:22.720Z,-0.16
2018-02-09T19:37:50.977Z,-0.11
2018-02-09T19:40:19.251Z,-0.10
2018-02-09T19:42:47.513Z,-0.01
2018-02-09T19:45:16.553Z,-0.02
2018-02-09T19:47:44.810Z,0.07
2018-02-09T19:50:13.069Z,0.08
2018-02-09T19:52:41.342Z,-0.03
2018-02-09T19:55:09.609Z,-0.04
2018-02-09T19:57:37.870Z,-0.05
2018-02-09T20:00:06.913Z,-0.13
2018-02-09T20:02:35.187Z,-0.06
2018-02-09T20:05:03.455Z,-0.15
2018-02-09T20:07:31.706Z,-0.19
2018-02-09T20:10:00.751Z,-0.22
2018-02-09T20:12:29.028Z,-0.12
2018-02-09T20:14:57.285Z,-0.11
2018-02-09T20:17:25.549Z,-0.15
2018-02-09T20:19:53.827Z,-0.21
2018-02-09T20:22:22.091Z,-0.15
2018-02-09T20:24:50.371Z,-0.05
2018-02-09T20:27:18.614Z,0.03
2018-02-09T20:29:47.638Z,0.07
2018-02-09T20:32:15.901Z,-0.03
2018-02-09T20:34:44.162Z,-0.17
2018-02-09T20:37:13.185Z,-0.11
2018-02-09T20:39:41.501Z,-0.15
2018-02-09T20:42:09.715Z,-0.15
2018-02-09T20:44:38.745Z,-0.04
2018-02-09T20:47:07.019Z,0.03
2018-02-09T20:49:35.277Z,-0.04
2018-02-09T20:52:03.538Z,0.11
2018-02-09T20:54:32.595Z,0.07
2018-02-09T20:57:00.850Z,0.02
2018-02-09T20:59:29.105Z,-0.01
2018-02-09T21:01:57.374Z,-0.18
2018-02-09T21:04:25.641Z,-0.24
2018-02-09T21:06:54.668Z,-0.09
2018-02-09T21:09:22.933Z,-0.11
2018-02-09T21:11:51.205Z,-0.06
2018-02-09T21:14:19.466Z,-0.02
2018-02-09T21:16:47.788Z,-0.05
2018-02-09T21:19:16.055Z,-0.04
2018-02-09T21:21:44.320Z,-0.08
2018-02-09T21:24:12.587Z,0.07
2018-02-09T21:26:40.846Z,0.08
2018-02-09T21:29:09.109Z,0.10
2018-02-09T21:31:38.130Z,0.04
2018-02-09T21:34:06.404Z,0.05
2018-02-09T21:36:34.659Z,0.03
2018-02-09T21:39:02.917Z,0.00
2018-02-09T21:41:31.952Z,0.05
2018-02-09T21:44:00.224Z,-0.02
2018-02-09T21:46:28.481Z,0.11
2018-02-09T21:48:56.742Z,0.18
2018-02-09T21:51:25.764Z,0.23
2018-02-09T21:53:54.036Z,0.15
2018-02-09T21:56:22.282Z,0.12
2018-02-09T21:58:52.233Z,0.19
2018-02-09T22:01:20.494Z,0.25
2018-02-09T22:03:49.522Z,0.12
2018-02-09T22:06:17.784Z,-0.01
2018-02-09T22:08:46.050Z,-0.05
2018-02-09T22:11:14.317Z,0.04
2018-02-09T22:13:42.682Z,-0.02
2018-02-09T22:16:11.701Z,0.03
2018-02-09T22:18:39.964Z,0.03
2018-02-09T22:21:08.222Z,0.09
2018-02-09T22:23:37.307Z,0.09
2018-02-09T22:26:05.507Z,0.16
2018-02-09T22:28:33.779Z,0.15
2018-02-09T22:31:02.033Z,0.12
2018-02-09T22:33:31.052Z,0.12
2018-02-09T22:35:59.327Z,0.02
2018-02-09T22:38:27.578Z,0.02
2018-02-09T22:40:56.609Z,-0.05
2018-02-09T22:43:24.870Z,0.04
2018-02-09T22:45:53.140Z,-0.02
2018-02-09T22:48:25.498Z,-0.02
2018-02-09T22:50:54.564Z,0.02
2018-02-09T22:53:22.813Z,0.10
2018-02-09T22:55:51.092Z,-0.10
2018-02-09T22:58:19.357Z,-0.17
2018-02-09T23:00:47.617Z,-0.05
2018-02-09T23:03:15.882Z,-0.07
2018-02-09T23:05:44.918Z,-0.03
2018-02-09T23:08:13.947Z,-0.03
2018-02-09T23:10:42.218Z,-0.03
2018-02-09T23:13:10.484Z,-0.03
2018-02-09T23:15:38.755Z,0.04
2018-02-09T23:18:07.016Z,0.07
2018-02-09T23:20:35.278Z,0.09
2018-02-09T23:23:03.538Z,0.01
2018-02-09T23:25:31.797Z,0.02
2018-02-09T23:28:00.068Z,-0.05
2018-02-09T23:30:29.101Z,0.03
2018-02-09T23:32:57.349Z,0.04
2018-02-09T23:35:25.634Z,0.12
2018-02-09T23:37:53.895Z,0.10
2018-02-09T23:40:22.906Z,0.04
2018-02-09T23:42:51.175Z,-0.03
2018-02-09T23:45:19.430Z,-0.03
2018-02-09T23:47:48.461Z,-0.03
2018-02-09T23:50:16.729Z,0.04
2018-02-09T23:52:45.121Z,0.05
2018-02-09T23:55:13.388Z,0.12
2018-02-09T23:57:41.663Z,0.06
